sensor_id;sensor_type;location;lat;lon;timestamp;temperature;humidity
13328;DHT22;6733;51.044;3.746;2023-11-22T00:02:04;7.70;99.90
13328;DHT22;6733;51.044;3.746;2023-11-22T00:04:30;7.70;99.90
13328;DHT22;6733;51.044;3.746;2023-11-22T00:06:56;7.70;99.90
13328;DHT22;6733;51.044;3.746;2023-11-22T00:09:22;7.60;99.90
13328;DHT22;6733;51.044;3.746;2023-11-22T00:11:49;7.60;99.90
13328;DHT22;6733;51.044;3.746;2023-11-22T00:14:15;7.60;99.90
13328;DHT22;6733;51.044;3.746;2023-11-22T00:16:42;7.60;99.90
13328;DHT22;6733;51.044;3.746;2023-11-22T00:19:08;7.60;99.90
13328;DHT22;6733;51.044;3.746;2023-11-22T00:21:34;7.50;99.90
13328;DHT22;6733;51.044;3.746;2023-11-22T00:24:01;7.50;99.90
13328;DHT22;6733;51.044;3.746;2023-11-22T00:26:27;7.50;99.90
13328;DHT22;6733;51.044;3.746;2023-11-22T00:28:53;7.50;99.90
13328;DHT22;6733;51.044;3.746;2023-11-22T00:31:20;7.40;99.90
13328;DHT22;6733;51.044;3.746;2023-11-22T00:33:46;7.40;99.90
13328;DHT22;6733;51.044;3.746;2023-11-22T00:36:12;7.40;99.90
13328;DHT22;6733;51.044;3.746;2023-11-22T00:38:38;7.30;99.90
13328;DHT22;6733;51.044;3.746;2023-11-22T00:41:05;7.30;99.90
13328;DHT22;6733;51.044;3.746;2023-11-22T00:43:33;7.30;99.90
13328;DHT22;6733;51.044;3.746;2023-11-22T00:45:59;7.30;99.90
13328;DHT22;6733;51.044;3.746;2023-11-22T00:48:25;7.30;99.90
13328;DHT22;6733;51.044;3.746;2023-11-22T00:50:51;7.20;99.90
13328;DHT22;6733;51.044;3.746;2023-11-22T00:53:18;7.20;99.90
13328;DHT22;6733;51.044;3.746;2023-11-22T00:55:44;7.20;99.90
13328;DHT22;6733;51.044;3.746;2023-11-22T00:58:10;7.20;99.90
13328;DHT22;6733;51.044;3.746;2023-11-22T01:00:36;7.20;99.90
13328;DHT22;6733;51.044;3.746;2023-11-22T01:03:02;7.20;99.90
13328;DHT22;6733;51.044;3.746;2023-11-22T01:05:31;7.10;99.90
13328;DHT22;6733;51.044;3.746;2023-11-22T01:07:57;7.10;99.90
13328;DHT22;6733;51.044;3.746;2023-11-22T01:10:23;7.10;99.90
13328;DHT22;6733;51.044;3.746;2023-11-22T01:12:49;7.10;99.90
13328;DHT22;6733;51.044;3.746;2023-11-22T01:15:15;7.10;99.90
13328;DHT22;6733;51.044;3.746;2023-11-22T01:17:42;7.00;99.90
13328;DHT22;6733;51.044;3.746;2023-11-22T01:20:08;7.10;99.90
13328;DHT22;6733;51.044;3.746;2023-11-22T01:22:36;7.10;99.90
13328;DHT22;6733;51.044;3.746;2023-11-22T01:25:04;7.10;99.90
13328;DHT22;6733;51.044;3.746;2023-11-22T01:27:30;7.10;99.90
13328;DHT22;6733;51.044;3.746;2023-11-22T01:29:56;7.00;99.90
13328;DHT22;6733;51.044;3.746;2023-11-22T01:32:23;7.00;99.90
13328;DHT22;6733;51.044;3.746;2023-11-22T01:34:50;7.00;99.90
13328;DHT22;6733;51.044;3.746;2023-11-22T01:37:16;7.00;99.90
13328;DHT22;6733;51.044;3.746;2023-11-22T01:39:42;7.00;99.90
13328;DHT22;6733;51.044;3.746;2023-11-22T01:42:09;7.00;99.90
13328;DHT22;6733;51.044;3.746;2023-11-22T01:44:35;7.00;99.90
13328;DHT22;6733;51.044;3.746;2023-11-22T01:47:02;7.00;99.90
13328;DHT22;6733;51.044;3.746;2023-11-22T01:49:29;7.00;99.90
13328;DHT22;6733;51.044;3.746;2023-11-22T01:51:55;7.00;99.90
13328;DHT22;6733;51.044;3.746;2023-11-22T01:54:21;7.00;99.90
13328;DHT22;6733;51.044;3.746;2023-11-22T01:56:50;6.90;99.90
13328;DHT22;6733;51.044;3.746;2023-11-22T01:59:16;6.90;99.90
13328;DHT22;6733;51.044;3.746;2023-11-22T02:01:43;6.90;99.90
13328;DHT22;6733;51.044;3.746;2023-11-22T02:04:12;6.90;99.90
13328;DHT22;6733;51.044;3.746;2023-11-22T02:06:38;6.90;99.90
13328;DHT22;6733;51.044;3.746;2023-11-22T02:09:04;6.80;99.90
13328;DHT22;6733;51.044;3.746;2023-11-22T02:11:30;6.80;99.90
13328;DHT22;6733;51.044;3.746;2023-11-22T02:13:57;6.80;99.90
13328;DHT22;6733;51.044;3.746;2023-11-22T02:16:23;6.80;99.90
13328;DHT22;6733;51.044;3.746;2023-11-22T02:18:49;6.80;99.90
13328;DHT22;6733;51.044;3.746;2023-11-22T02:21:19;6.80;99.90
13328;DHT22;6733;51.044;3.746;2023-11-22T02:23:47;6.80;99.90
13328;DHT22;6733;51.044;3.746;2023-11-22T02:26:13;6.80;99.90
13328;DHT22;6733;51.044;3.746;2023-11-22T02:28:41;6.70;99.90
13328;DHT22;6733;51.044;3.746;2023-11-22T02:58:04;6.60;99.90
13328;DHT22;6733;51.044;3.746;2023-11-22T03:00:30;6.60;99.90
13328;DHT22;6733;51.044;3.746;2023-11-22T03:02:56;6.60;99.90
13328;DHT22;6733;51.044;3.746;2023-11-22T03:05:22;6.70;99.90
13328;DHT22;6733;51.044;3.746;2023-11-22T03:07:48;6.70;99.90
13328;DHT22;6733;51.044;3.746;2023-11-22T03:10:17;6.70;99.90
13328;DHT22;6733;51.044;3.746;2023-11-22T03:12:44;6.70;99.90
13328;DHT22;6733;51.044;3.746;2023-11-22T03:15:10;6.70;99.90
13328;DHT22;6733;51.044;3.746;2023-11-22T03:17:37;6.70;99.90
13328;DHT22;6733;51.044;3.746;2023-11-22T03:20:04;6.70;99.90
13328;DHT22;6733;51.044;3.746;2023-11-22T03:22:35;6.70;99.90
13328;DHT22;6733;51.044;3.746;2023-11-22T03:25:01;6.70;99.90
13328;DHT22;6733;51.044;3.746;2023-11-22T03:27:28;6.70;99.90
13328;DHT22;6733;51.044;3.746;2023-11-22T03:29:54;6.70;99.90
13328;DHT22;6733;51.044;3.746;2023-11-22T03:32:21;6.80;99.90
13328;DHT22;6733;51.044;3.746;2023-11-22T03:34:47;6.80;99.90
13328;DHT22;6733;51.044;3.746;2023-11-22T03:37:13;6.90;99.90
13328;DHT22;6733;51.044;3.746;2023-11-22T03:39:40;6.80;99.90
13328;DHT22;6733;51.044;3.746;2023-11-22T03:42:06;6.90;99.90
13328;DHT22;6733;51.044;3.746;2023-11-22T03:44:32;6.90;99.90
13328;DHT22;6733;51.044;3.746;2023-11-22T03:46:58;6.90;99.90
13328;DHT22;6733;51.044;3.746;2023-11-22T03:49:24;6.90;99.90
13328;DHT22;6733;51.044;3.746;2023-11-22T03:51:50;6.90;99.90
13328;DHT22;6733;51.044;3.746;2023-11-22T03:54:16;6.90;99.90
13328;DHT22;6733;51.044;3.746;2023-11-22T03:56:42;6.90;99.90
13328;DHT22;6733;51.044;3.746;2023-11-22T03:59:10;6.90;99.90
13328;DHT22;6733;51.044;3.746;2023-11-22T04:01:36;6.90;99.90
13328;DHT22;6733;51.044;3.746;2023-11-22T04:04:02;7.00;99.90
13328;DHT22;6733;51.044;3.746;2023-11-22T04:06:28;7.00;99.90
13328;DHT22;6733;51.044;3.746;2023-11-22T04:08:55;7.00;99.90
13328;DHT22;6733;51.044;3.746;2023-11-22T04:11:21;7.00;99.90
13328;DHT22;6733;51.044;3.746;2023-11-22T04:13:47;7.00;99.90
13328;DHT22;6733;51.044;3.746;2023-11-22T04:16:14;7.00;99.90
13328;DHT22;6733;51.044;3.746;2023-11-22T04:18:40;7.00;99.90
13328;DHT22;6733;51.044;3.746;2023-11-22T04:21:07;7.00;99.90
13328;DHT22;6733;51.044;3.746;2023-11-22T04:23:35;7.00;99.90
13328;DHT22;6733;51.044;3.746;2023-11-22T04:26:01;7.00;99.90
13328;DHT22;6733;51.044;3.746;2023-11-22T04:28:28;7.00;99.90
13328;DHT22;6733;51.044;3.746;2023-11-22T04:30:58;7.00;99.90
13328;DHT22;6733;51.044;3.746;2023-11-22T04:33:24;7.00;99.90
13328;DHT22;6733;51.044;3.746;2023-11-22T04:35:51;7.00;99.90
13328;DHT22;6733;51.044;3.746;2023-11-22T04:38:17;7.00;99.90
13328;DHT22;6733;51.044;3.746;2023-11-22T04:40:44;6.90;99.90
13328;DHT22;6733;51.044;3.746;2023-11-22T04:43:10;6.90;99.90
13328;DHT22;6733;51.044;3.746;2023-11-22T04:45:37;6.80;99.90
13328;DHT22;6733;51.044;3.746;2023-11-22T04:48:03;6.80;99.90
13328;DHT22;6733;51.044;3.746;2023-11-22T04:50:30;6.80;99.90
13328;DHT22;6733;51.044;3.746;2023-11-22T04:52:57;6.80;99.90
13328;DHT22;6733;51.044;3.746;2023-11-22T04:55:23;6.80;99.90
13328;DHT22;6733;51.044;3.746;2023-11-22T04:57:49;6.70;99.90
13328;DHT22;6733;51.044;3.746;2023-11-22T05:00:16;6.70;99.90
13328;DHT22;6733;51.044;3.746;2023-11-22T05:02:43;6.70;99.90
13328;DHT22;6733;51.044;3.746;2023-11-22T05:05:09;6.70;99.90
13328;DHT22;6733;51.044;3.746;2023-11-22T05:07:38;6.60;99.90
13328;DHT22;6733;51.044;3.746;2023-11-22T05:10:04;6.60;99.90
13328;DHT22;6733;51.044;3.746;2023-11-22T05:12:31;6.60;99.90
13328;DHT22;6733;51.044;3.746;2023-11-22T05:14:57;6.60;99.90
13328;DHT22;6733;51.044;3.746;2023-11-22T05:17:23;6.60;99.90
13328;DHT22;6733;51.044;3.746;2023-11-22T05:19:50;6.60;99.90
13328;DHT22;6733;51.044;3.746;2023-11-22T05:22:16;6.60;99.90
13328;DHT22;6733;51.044;3.746;2023-11-22T05:24:42;6.60;99.90
13328;DHT22;6733;51.044;3.746;2023-11-22T05:27:08;6.60;99.90
13328;DHT22;6733;51.044;3.746;2023-11-22T05:29:35;6.60;99.90
13328;DHT22;6733;51.044;3.746;2023-11-22T05:32:01;6.60;99.90
13328;DHT22;6733;51.044;3.746;2023-11-22T05:34:28;6.60;99.90
13328;DHT22;6733;51.044;3.746;2023-11-22T05:36:55;6.50;99.90
13328;DHT22;6733;51.044;3.746;2023-11-22T05:39:21;6.60;99.90
13328;DHT22;6733;51.044;3.746;2023-11-22T05:41:50;6.50;99.90
13328;DHT22;6733;51.044;3.746;2023-11-22T05:44:18;6.50;99.90
13328;DHT22;6733;51.044;3.746;2023-11-22T05:46:45;6.50;99.90
13328;DHT22;6733;51.044;3.746;2023-11-22T05:49:11;6.50;99.90
13328;DHT22;6733;51.044;3.746;2023-11-22T05:51:37;6.50;99.90
13328;DHT22;6733;51.044;3.746;2023-11-22T05:54:04;6.50;99.90
13328;DHT22;6733;51.044;3.746;2023-11-22T05:56:30;6.50;99.90
13328;DHT22;6733;51.044;3.746;2023-11-22T05:58:57;6.50;99.90
13328;DHT22;6733;51.044;3.746;2023-11-22T06:01:23;6.50;99.90
13328;DHT22;6733;51.044;3.746;2023-11-22T06:03:49;6.50;99.90
13328;DHT22;6733;51.044;3.746;2023-11-22T06:06:16;6.50;99.90
13328;DHT22;6733;51.044;3.746;2023-11-22T06:08:43;6.50;99.90
13328;DHT22;6733;51.044;3.746;2023-11-22T06:11:09;6.50;99.90
13328;DHT22;6733;51.044;3.746;2023-11-22T06:13:35;6.50;99.90
13328;DHT22;6733;51.044;3.746;2023-11-22T06:16:01;6.60;99.90
13328;DHT22;6733;51.044;3.746;2023-11-22T06:18:27;6.60;99.90
13328;DHT22;6733;51.044;3.746;2023-11-22T06:20:55;6.60;99.90
13328;DHT22;6733;51.044;3.746;2023-11-22T06:23:22;6.70;99.90
13328;DHT22;6733;51.044;3.746;2023-11-22T06:25:49;6.70;99.90
13328;DHT22;6733;51.044;3.746;2023-11-22T06:28:15;6.80;99.90
13328;DHT22;6733;51.044;3.746;2023-11-22T06:30:42;6.80;99.90
13328;DHT22;6733;51.044;3.746;2023-11-22T06:33:08;6.80;99.90
13328;DHT22;6733;51.044;3.746;2023-11-22T06:35:34;6.80;99.90
13328;DHT22;6733;51.044;3.746;2023-11-22T06:38:00;6.80;99.90
13328;DHT22;6733;51.044;3.746;2023-11-22T06:40:26;6.90;99.90
13328;DHT22;6733;51.044;3.746;2023-11-22T06:42:55;6.90;99.90
13328;DHT22;6733;51.044;3.746;2023-11-22T06:45:22;6.90;99.90
13328;DHT22;6733;51.044;3.746;2023-11-22T06:47:48;6.90;99.90
13328;DHT22;6733;51.044;3.746;2023-11-22T06:50:16;7.00;99.90
13328;DHT22;6733;51.044;3.746;2023-11-22T06:52:42;7.00;99.90
13328;DHT22;6733;51.044;3.746;2023-11-22T06:55:10;7.00;99.90
13328;DHT22;6733;51.044;3.746;2023-11-22T06:57:37;7.10;99.90
13328;DHT22;6733;51.044;3.746;2023-11-22T07:00:04;7.00;99.90
13328;DHT22;6733;51.044;3.746;2023-11-22T07:02:36;7.00;99.90
13328;DHT22;6733;51.044;3.746;2023-11-22T07:05:02;7.00;99.90
13328;DHT22;6733;51.044;3.746;2023-11-22T07:07:29;7.10;99.90
13328;DHT22;6733;51.044;3.746;2023-11-22T07:09:56;7.00;99.90
13328;DHT22;6733;51.044;3.746;2023-11-22T07:12:25;7.00;99.90
13328;DHT22;6733;51.044;3.746;2023-11-22T07:14:52;7.10;99.90
13328;DHT22;6733;51.044;3.746;2023-11-22T07:17:19;7.10;99.90
13328;DHT22;6733;51.044;3.746;2023-11-22T07:19:45;7.10;99.90
13328;DHT22;6733;51.044;3.746;2023-11-22T07:22:14;7.10;99.90
13328;DHT22;6733;51.044;3.746;2023-11-22T07:24:45;7.10;99.90
13328;DHT22;6733;51.044;3.746;2023-11-22T07:27:16;7.10;99.90
13328;DHT22;6733;51.044;3.746;2023-11-22T07:29:43;7.20;99.90
13328;DHT22;6733;51.044;3.746;2023-11-22T07:32:10;7.20;99.90
13328;DHT22;6733;51.044;3.746;2023-11-22T07:34:37;7.30;99.90
13328;DHT22;6733;51.044;3.746;2023-11-22T07:37:03;7.30;99.90
13328;DHT22;6733;51.044;3.746;2023-11-22T07:39:29;7.30;99.90
13328;DHT22;6733;51.044;3.746;2023-11-22T07:41:55;7.30;99.90
13328;DHT22;6733;51.044;3.746;2023-11-22T07:44:22;7.30;99.90
13328;DHT22;6733;51.044;3.746;2023-11-22T07:46:50;7.40;99.90
13328;DHT22;6733;51.044;3.746;2023-11-22T07:49:25;7.40;99.90
13328;DHT22;6733;51.044;3.746;2023-11-22T07:51:52;7.50;99.90
13328;DHT22;6733;51.044;3.746;2023-11-22T07:54:22;7.50;99.90
13328;DHT22;6733;51.044;3.746;2023-11-22T07:56:51;7.60;99.90
13328;DHT22;6733;51.044;3.746;2023-11-22T07:59:22;7.60;99.90
13328;DHT22;6733;51.044;3.746;2023-11-22T08:01:48;7.60;99.90
13328;DHT22;6733;51.044;3.746;2023-11-22T08:04:15;7.60;99.90
13328;DHT22;6733;51.044;3.746;2023-11-22T08:06:42;7.70;99.90
13328;DHT22;6733;51.044;3.746;2023-11-22T08:09:08;7.60;99.90
13328;DHT22;6733;51.044;3.746;2023-11-22T08:11:36;7.70;99.90
13328;DHT22;6733;51.044;3.746;2023-11-22T08:14:02;7.70;99.90
13328;DHT22;6733;51.044;3.746;2023-11-22T08:16:29;7.70;99.90
13328;DHT22;6733;51.044;3.746;2023-11-22T08:18:55;7.70;99.90
13328;DHT22;6733;51.044;3.746;2023-11-22T08:21:23;7.70;99.90
13328;DHT22;6733;51.044;3.746;2023-11-22T08:23:49;7.80;99.90
13328;DHT22;6733;51.044;3.746;2023-11-22T08:26:16;7.80;99.90
13328;DHT22;6733;51.044;3.746;2023-11-22T08:28:42;7.90;99.90
13328;DHT22;6733;51.044;3.746;2023-11-22T08:31:08;8.00;99.90
13328;DHT22;6733;51.044;3.746;2023-11-22T08:33:37;8.00;99.90
13328;DHT22;6733;51.044;3.746;2023-11-22T08:36:08;8.00;99.90
13328;DHT22;6733;51.044;3.746;2023-11-22T08:38:38;8.10;99.90
13328;DHT22;6733;51.044;3.746;2023-11-22T08:41:08;8.10;99.90
13328;DHT22;6733;51.044;3.746;2023-11-22T08:43:39;8.10;99.90
13328;DHT22;6733;51.044;3.746;2023-11-22T08:46:06;8.20;99.90
13328;DHT22;6733;51.044;3.746;2023-11-22T08:48:34;8.20;99.90
13328;DHT22;6733;51.044;3.746;2023-11-22T08:51:01;8.30;99.90
13328;DHT22;6733;51.044;3.746;2023-11-22T08:53:30;8.30;99.90
13328;DHT22;6733;51.044;3.746;2023-11-22T08:55:56;8.40;99.90
13328;DHT22;6733;51.044;3.746;2023-11-22T08:58:25;8.40;99.90
13328;DHT22;6733;51.044;3.746;2023-11-22T09:00:51;8.50;99.90
13328;DHT22;6733;51.044;3.746;2023-11-22T09:03:19;8.60;99.90
13328;DHT22;6733;51.044;3.746;2023-11-22T09:05:45;8.70;99.90
13328;DHT22;6733;51.044;3.746;2023-11-22T09:08:15;8.70;99.90
13328;DHT22;6733;51.044;3.746;2023-11-22T09:10:42;8.80;99.90
13328;DHT22;6733;51.044;3.746;2023-11-22T09:13:08;8.80;99.90
13328;DHT22;6733;51.044;3.746;2023-11-22T09:15:35;8.90;99.90
13328;DHT22;6733;51.044;3.746;2023-11-22T09:18:02;9.00;99.90
13328;DHT22;6733;51.044;3.746;2023-11-22T09:20:28;9.00;99.90
13328;DHT22;6733;51.044;3.746;2023-11-22T09:22:55;9.00;99.90
13328;DHT22;6733;51.044;3.746;2023-11-22T09:25:22;9.10;99.90
13328;DHT22;6733;51.044;3.746;2023-11-22T09:27:50;9.20;99.90
13328;DHT22;6733;51.044;3.746;2023-11-22T09:30:22;9.30;99.90
13328;DHT22;6733;51.044;3.746;2023-11-22T09:33:20;9.40;99.90
13328;DHT22;6733;51.044;3.746;2023-11-22T09:35:47;9.60;99.90
13328;DHT22;6733;51.044;3.746;2023-11-22T09:38:14;9.70;99.90
13328;DHT22;6733;51.044;3.746;2023-11-22T09:43:09;10.00;99.90
13328;DHT22;6733;51.044;3.746;2023-11-22T09:45:36;10.10;99.90
13328;DHT22;6733;51.044;3.746;2023-11-22T09:48:18;10.10;99.90
13328;DHT22;6733;51.044;3.746;2023-11-22T09:50:57;10.20;99.90
13328;DHT22;6733;51.044;3.746;2023-11-22T09:55:58;10.30;99.90
13328;DHT22;6733;51.044;3.746;2023-11-22T09:58:25;10.40;99.90
13328;DHT22;6733;51.044;3.746;2023-11-22T10:00:51;10.50;99.90
13328;DHT22;6733;51.044;3.746;2023-11-22T10:03:19;10.60;99.90
13328;DHT22;6733;51.044;3.746;2023-11-22T10:05:46;10.60;99.90
13328;DHT22;6733;51.044;3.746;2023-11-22T10:08:12;10.60;99.90
13328;DHT22;6733;51.044;3.746;2023-11-22T10:10:38;10.70;99.90
13328;DHT22;6733;51.044;3.746;2023-11-22T10:13:06;10.80;99.90
13328;DHT22;6733;51.044;3.746;2023-11-22T10:15:32;11.00;99.90
13328;DHT22;6733;51.044;3.746;2023-11-22T10:17:59;11.00;99.90
13328;DHT22;6733;51.044;3.746;2023-11-22T10:20:38;11.00;99.90
13328;DHT22;6733;51.044;3.746;2023-11-22T10:23:12;11.10;99.90
13328;DHT22;6733;51.044;3.746;2023-11-22T10:25:44;11.20;99.90
13328;DHT22;6733;51.044;3.746;2023-11-22T10:28:11;11.30;99.90
13328;DHT22;6733;51.044;3.746;2023-11-22T10:30:38;11.30;99.90
13328;DHT22;6733;51.044;3.746;2023-11-22T10:33:06;11.20;99.90
13328;DHT22;6733;51.044;3.746;2023-11-22T10:35:32;11.10;99.90
13328;DHT22;6733;51.044;3.746;2023-11-22T10:38:01;11.00;99.90
13328;DHT22;6733;51.044;3.746;2023-11-22T10:40:32;11.00;99.90
13328;DHT22;6733;51.044;3.746;2023-11-22T10:42:58;11.00;99.90
13328;DHT22;6733;51.044;3.746;2023-11-22T10:45:29;11.10;99.90
13328;DHT22;6733;51.044;3.746;2023-11-22T10:47:56;11.20;99.90
13328;DHT22;6733;51.044;3.746;2023-11-22T10:50:23;11.30;99.90
13328;DHT22;6733;51.044;3.746;2023-11-22T10:52:52;11.40;99.90
13328;DHT22;6733;51.044;3.746;2023-11-22T10:55:31;11.40;99.90
13328;DHT22;6733;51.044;3.746;2023-11-22T10:58:02;11.60;99.90
13328;DHT22;6733;51.044;3.746;2023-11-22T11:00:31;11.70;99.90
13328;DHT22;6733;51.044;3.746;2023-11-22T11:03:07;11.70;99.90
13328;DHT22;6733;51.044;3.746;2023-11-22T11:05:38;11.70;99.90
13328;DHT22;6733;51.044;3.746;2023-11-22T11:08:08;11.60;99.90
13328;DHT22;6733;51.044;3.746;2023-11-22T11:10:44;11.60;99.90
13328;DHT22;6733;51.044;3.746;2023-11-22T11:13:14;11.60;99.90
13328;DHT22;6733;51.044;3.746;2023-11-22T11:15:43;11.50;99.90
13328;DHT22;6733;51.044;3.746;2023-11-22T11:18:13;11.60;99.90
13328;DHT22;6733;51.044;3.746;2023-11-22T11:21:08;11.60;99.90
13328;DHT22;6733;51.044;3.746;2023-11-22T11:23:39;11.40;99.90
13328;DHT22;6733;51.044;3.746;2023-11-22T11:26:18;11.30;99.90
13328;DHT22;6733;51.044;3.746;2023-11-22T11:28:50;11.40;99.90
13328;DHT22;6733;51.044;3.746;2023-11-22T11:31:20;11.20;99.90
13328;DHT22;6733;51.044;3.746;2023-11-22T11:36:25;11.10;99.90
13328;DHT22;6733;51.044;3.746;2023-11-22T11:38:53;11.00;99.90
13328;DHT22;6733;51.044;3.746;2023-11-22T11:41:31;11.00;99.90
13328;DHT22;6733;51.044;3.746;2023-11-22T11:44:02;11.10;99.90
13328;DHT22;6733;51.044;3.746;2023-11-22T11:46:30;11.20;99.90
13328;DHT22;6733;51.044;3.746;2023-11-22T11:48:56;11.30;99.90
13328;DHT22;6733;51.044;3.746;2023-11-22T11:51:27;11.50;99.90
13328;DHT22;6733;51.044;3.746;2023-11-22T11:53:56;11.60;99.90
13328;DHT22;6733;51.044;3.746;2023-11-22T11:56:23;11.60;99.90
13328;DHT22;6733;51.044;3.746;2023-11-22T11:58:56;11.60;99.90
13328;DHT22;6733;51.044;3.746;2023-11-22T12:01:27;11.60;99.90
13328;DHT22;6733;51.044;3.746;2023-11-22T12:03:53;11.50;99.90
13328;DHT22;6733;51.044;3.746;2023-11-22T12:06:19;11.40;99.90
13328;DHT22;6733;51.044;3.746;2023-11-22T12:08:46;11.30;99.90
13328;DHT22;6733;51.044;3.746;2023-11-22T12:11:14;11.30;99.90
13328;DHT22;6733;51.044;3.746;2023-11-22T12:13:42;11.20;99.90
13328;DHT22;6733;51.044;3.746;2023-11-22T12:16:16;11.10;99.90
13328;DHT22;6733;51.044;3.746;2023-11-22T12:18:47;10.70;99.90
13328;DHT22;6733;51.044;3.746;2023-11-22T12:21:14;10.60;99.90
13328;DHT22;6733;51.044;3.746;2023-11-22T12:23:42;10.80;99.90
13328;DHT22;6733;51.044;3.746;2023-11-22T12:26:12;10.80;99.90
13328;DHT22;6733;51.044;3.746;2023-11-22T12:28:40;10.90;99.90
13328;DHT22;6733;51.044;3.746;2023-11-22T12:31:08;10.90;99.90
13328;DHT22;6733;51.044;3.746;2023-11-22T12:33:36;11.00;99.90
13328;DHT22;6733;51.044;3.746;2023-11-22T12:36:03;11.10;99.90
13328;DHT22;6733;51.044;3.746;2023-11-22T12:38:30;11.20;99.90
13328;DHT22;6733;51.044;3.746;2023-11-22T12:40:59;11.20;99.90
13328;DHT22;6733;51.044;3.746;2023-11-22T12:43:26;11.30;99.90
13328;DHT22;6733;51.044;3.746;2023-11-22T12:46:02;11.30;99.90
13328;DHT22;6733;51.044;3.746;2023-11-22T12:48:29;11.30;99.90
13328;DHT22;6733;51.044;3.746;2023-11-22T12:50:56;11.40;99.90
13328;DHT22;6733;51.044;3.746;2023-11-22T12:53:23;11.30;99.90
13328;DHT22;6733;51.044;3.746;2023-11-22T12:55:52;11.40;99.90
13328;DHT22;6733;51.044;3.746;2023-11-22T12:58:19;11.40;99.90
13328;DHT22;6733;51.044;3.746;2023-11-22T13:00:47;11.40;99.90
13328;DHT22;6733;51.044;3.746;2023-11-22T13:03:14;11.50;99.90
13328;DHT22;6733;51.044;3.746;2023-11-22T13:05:41;11.60;99.90
13328;DHT22;6733;51.044;3.746;2023-11-22T13:08:12;11.60;99.90
13328;DHT22;6733;51.044;3.746;2023-11-22T13:10:45;11.50;99.90
13328;DHT22;6733;51.044;3.746;2023-11-22T13:13:23;11.50;99.90
13328;DHT22;6733;51.044;3.746;2023-11-22T13:15:50;11.40;99.90
13328;DHT22;6733;51.044;3.746;2023-11-22T13:18:17;11.40;99.90
13328;DHT22;6733;51.044;3.746;2023-11-22T13:20:43;11.40;99.90
13328;DHT22;6733;51.044;3.746;2023-11-22T13:23:10;11.30;99.90
13328;DHT22;6733;51.044;3.746;2023-11-22T13:25:37;11.30;99.90
13328;DHT22;6733;51.044;3.746;2023-11-22T13:28:04;11.20;99.90
13328;DHT22;6733;51.044;3.746;2023-11-22T13:30:32;11.20;99.90
13328;DHT22;6733;51.044;3.746;2023-11-22T13:32:58;11.20;99.90
13328;DHT22;6733;51.044;3.746;2023-11-22T13:35:25;11.10;99.90
13328;DHT22;6733;51.044;3.746;2023-11-22T13:37:59;11.10;99.90
13328;DHT22;6733;51.044;3.746;2023-11-22T13:40:28;11.10;99.90
13328;DHT22;6733;51.044;3.746;2023-11-22T13:42:57;11.20;99.90
13328;DHT22;6733;51.044;3.746;2023-11-22T13:45:24;11.20;99.90
13328;DHT22;6733;51.044;3.746;2023-11-22T13:47:53;11.20;99.90
13328;DHT22;6733;51.044;3.746;2023-11-22T13:50:23;11.20;99.90
13328;DHT22;6733;51.044;3.746;2023-11-22T13:52:54;11.20;99.90
13328;DHT22;6733;51.044;3.746;2023-11-22T13:55:21;11.30;99.90
13328;DHT22;6733;51.044;3.746;2023-11-22T13:57:52;11.30;99.90
13328;DHT22;6733;51.044;3.746;2023-11-22T14:00:20;11.50;99.90
13328;DHT22;6733;51.044;3.746;2023-11-22T14:02:50;11.50;99.90
13328;DHT22;6733;51.044;3.746;2023-11-22T14:05:26;11.40;99.90
13328;DHT22;6733;51.044;3.746;2023-11-22T14:07:55;11.30;99.90
13328;DHT22;6733;51.044;3.746;2023-11-22T14:10:21;11.20;99.90
13328;DHT22;6733;51.044;3.746;2023-11-22T14:12:49;11.20;99.90
13328;DHT22;6733;51.044;3.746;2023-11-22T14:15:15;11.20;99.90
13328;DHT22;6733;51.044;3.746;2023-11-22T14:17:42;11.10;99.90
13328;DHT22;6733;51.044;3.746;2023-11-22T14:20:12;11.10;99.90
13328;DHT22;6733;51.044;3.746;2023-11-22T14:22:39;11.00;99.90
13328;DHT22;6733;51.044;3.746;2023-11-22T14:25:07;10.90;99.90
13328;DHT22;6733;51.044;3.746;2023-11-22T14:27:40;10.90;99.90
13328;DHT22;6733;51.044;3.746;2023-11-22T14:30:07;10.90;99.90
13328;DHT22;6733;51.044;3.746;2023-11-22T14:32:34;10.90;99.90
13328;DHT22;6733;51.044;3.746;2023-11-22T14:35:02;10.80;99.90
13328;DHT22;6733;51.044;3.746;2023-11-22T14:37:29;10.90;99.90
13328;DHT22;6733;51.044;3.746;2023-11-22T14:39:56;10.80;99.90
13328;DHT22;6733;51.044;3.746;2023-11-22T14:42:23;10.80;99.90
13328;DHT22;6733;51.044;3.746;2023-11-22T14:44:53;10.80;99.90
13328;DHT22;6733;51.044;3.746;2023-11-22T14:47:20;10.80;99.90
13328;DHT22;6733;51.044;3.746;2023-11-22T14:49:51;10.70;99.90
13328;DHT22;6733;51.044;3.746;2023-11-22T14:52:17;10.60;99.90
13328;DHT22;6733;51.044;3.746;2023-11-22T14:54:45;10.60;99.90
13328;DHT22;6733;51.044;3.746;2023-11-22T14:57:12;10.50;99.90
13328;DHT22;6733;51.044;3.746;2023-11-22T14:59:41;10.50;99.90
13328;DHT22;6733;51.044;3.746;2023-11-22T15:02:08;10.40;99.90
13328;DHT22;6733;51.044;3.746;2023-11-22T15:04:35;10.30;99.90
13328;DHT22;6733;51.044;3.746;2023-11-22T15:07:04;10.30;99.90
13328;DHT22;6733;51.044;3.746;2023-11-22T15:09:32;10.30;99.90
13328;DHT22;6733;51.044;3.746;2023-11-22T15:12:01;10.30;99.90
13328;DHT22;6733;51.044;3.746;2023-11-22T15:14:31;10.20;99.90
13328;DHT22;6733;51.044;3.746;2023-11-22T15:17:01;10.10;99.90
13328;DHT22;6733;51.044;3.746;2023-11-22T15:19:29;10.10;99.90
13328;DHT22;6733;51.044;3.746;2023-11-22T15:21:56;10.10;99.90
13328;DHT22;6733;51.044;3.746;2023-11-22T15:24:23;10.00;99.90
13328;DHT22;6733;51.044;3.746;2023-11-22T15:26:49;10.00;99.90
13328;DHT22;6733;51.044;3.746;2023-11-22T15:29:15;10.00;99.90
13328;DHT22;6733;51.044;3.746;2023-11-22T15:31:43;9.90;99.90
13328;DHT22;6733;51.044;3.746;2023-11-22T15:34:10;9.90;99.90
13328;DHT22;6733;51.044;3.746;2023-11-22T15:36:42;9.90;99.90
13328;DHT22;6733;51.044;3.746;2023-11-22T15:39:08;9.90;99.90
13328;DHT22;6733;51.044;3.746;2023-11-22T15:41:38;9.90;99.90
13328;DHT22;6733;51.044;3.746;2023-11-22T15:44:05;9.90;99.90
13328;DHT22;6733;51.044;3.746;2023-11-22T15:46:31;9.90;99.90
13328;DHT22;6733;51.044;3.746;2023-11-22T15:48:58;9.80;99.90
13328;DHT22;6733;51.044;3.746;2023-11-22T15:51:24;9.90;99.90
13328;DHT22;6733;51.044;3.746;2023-11-22T15:53:50;9.80;99.90
13328;DHT22;6733;51.044;3.746;2023-11-22T15:56:16;9.80;99.90
13328;DHT22;6733;51.044;3.746;2023-11-22T15:58:46;9.80;99.90
13328;DHT22;6733;51.044;3.746;2023-11-22T16:01:12;9.80;99.90
13328;DHT22;6733;51.044;3.746;2023-11-22T16:03:40;9.80;99.90
13328;DHT22;6733;51.044;3.746;2023-11-22T16:06:06;9.90;99.90
13328;DHT22;6733;51.044;3.746;2023-11-22T16:08:35;9.90;99.90
13328;DHT22;6733;51.044;3.746;2023-11-22T16:11:01;9.80;99.90
13328;DHT22;6733;51.044;3.746;2023-11-22T16:13:27;9.70;99.90
13328;DHT22;6733;51.044;3.746;2023-11-22T16:15:54;9.70;99.90
13328;DHT22;6733;51.044;3.746;2023-11-22T16:18:33;9.70;99.90
13328;DHT22;6733;51.044;3.746;2023-11-22T16:21:00;9.70;99.90
13328;DHT22;6733;51.044;3.746;2023-11-22T16:23:26;9.60;99.90
13328;DHT22;6733;51.044;3.746;2023-11-22T16:25:52;9.60;99.90
13328;DHT22;6733;51.044;3.746;2023-11-22T16:28:18;9.70;99.90
13328;DHT22;6733;51.044;3.746;2023-11-22T16:30:44;9.60;99.90
13328;DHT22;6733;51.044;3.746;2023-11-22T16:33:13;9.60;99.90
13328;DHT22;6733;51.044;3.746;2023-11-22T16:35:40;9.60;99.90